createdAt,value
2023-05-21T00:03:45.370Z,14.05
2023-05-21T00:08:45.236Z,13.94
2023-05-21T00:13:45.205Z,13.84
2023-05-21T00:18:45.208Z,13.80
2023-05-21T00:23:45.160Z,13.73
2023-05-21T00:28:45.157Z,13.65
2023-05-21T00:33:45.120Z,13.55
2023-05-21T00:38:45.088Z,13.53
2023-05-21T00:43:45.044Z,13.54
2023-05-21T00:48:45.019Z,13.51
2023-05-21T00:53:45.005Z,13.47
2023-05-21T00:58:44.980Z,13.43
2023-05-21T01:03:45.021Z,13.35
2023-05-21T01:08:44.921Z,13.28
2023-05-21T01:13:44.909Z,13.24
2023-05-21T01:18:44.965Z,13.14
2023-05-21T01:23:44.846Z,13.04
2023-05-21T01:28:44.814Z,12.99
2023-05-21T01:33:44.855Z,12.94
2023-05-21T01:38:44.746Z,12.88
2023-05-21T01:43:44.707Z,12.81
2023-05-21T01:48:44.673Z,12.70
2023-05-21T01:53:44.649Z,12.55
2023-05-21T01:58:44.627Z,12.46
2023-05-21T02:03:44.736Z,12.31
2023-05-21T02:08:44.563Z,12.00
2023-05-21T02:13:44.537Z,11.88
2023-05-21T02:18:44.556Z,11.88
2023-05-21T02:23:44.465Z,11.96
2023-05-21T02:28:44.440Z,11.93
2023-05-21T02:33:44.513Z,11.85
2023-05-21T02:38:44.402Z,11.82
2023-05-21T02:43:44.343Z,11.78
2023-05-21T02:48:44.315Z,11.69
2023-05-21T02:53:44.287Z,11.59
2023-05-21T02:58:44.265Z,11.48
2023-05-21T03:03:44.282Z,11.38
2023-05-21T03:08:44.223Z,11.38
2023-05-21T03:13:44.211Z,11.33
2023-05-21T03:18:44.188Z,11.30
2023-05-21T03:23:44.136Z,11.30
2023-05-21T03:28:44.115Z,11.36
2023-05-21T03:33:44.103Z,11.49
2023-05-21T03:38:44.049Z,11.53
2023-05-21T03:43:44.010Z,11.53
2023-05-21T03:48:43.995Z,11.54
2023-05-21T03:53:43.982Z,11.67
2023-05-21T03:58:43.936Z,11.88
2023-05-21T04:03:44.046Z,12.11
2023-05-21T04:08:43.883Z,12.34
2023-05-21T04:13:43.868Z,12.52
2023-05-21T04:18:45.575Z,12.73
2023-05-21T04:23:43.789Z,12.92
2023-05-21T04:28:43.735Z,13.09
2023-05-21T04:33:43.697Z,13.19
2023-05-21T04:38:43.679Z,13.38
2023-05-21T04:43:43.638Z,13.46
2023-05-21T04:48:43.603Z,13.53
2023-05-21T04:53:43.566Z,13.65
2023-05-21T04:58:43.544Z,13.76
2023-05-21T05:03:43.568Z,13.87
2023-05-21T05:08:43.473Z,13.99
2023-05-21T05:13:43.461Z,14.13
2023-05-21T05:18:43.472Z,14.27
2023-05-21T05:23:43.389Z,14.44
2023-05-21T05:28:43.352Z,14.61
2023-05-21T05:33:43.321Z,14.85
2023-05-21T05:38:43.305Z,15.07
2023-05-21T05:43:43.248Z,15.37
2023-05-21T05:48:43.191Z,15.40
2023-05-21T05:53:43.172Z,15.60
2023-05-21T05:58:43.147Z,15.99
2023-05-21T06:03:43.238Z,16.03
2023-05-21T06:08:43.096Z,16.23
2023-05-21T06:13:43.064Z,16.44
2023-05-21T06:18:43.051Z,16.50
2023-05-21T06:23:43.014Z,16.65
2023-05-21T06:28:42.979Z,16.59
2023-05-21T06:33:43.041Z,16.99
2023-05-21T06:38:42.923Z,17.40
2023-05-21T06:43:42.898Z,17.79
2023-05-21T06:48:42.860Z,17.91
2023-05-21T06:53:42.859Z,18.13
2023-05-21T06:58:42.796Z,18.49
2023-05-21T07:03:42.822Z,19.30
2023-05-21T07:08:42.742Z,22.54
2023-05-21T07:13:42.729Z,22.45
2023-05-21T07:18:42.808Z,21.05
2023-05-21T07:23:42.682Z,21.58
2023-05-21T07:28:42.626Z,21.98
2023-05-21T07:33:42.644Z,23.72
2023-05-21T07:38:42.604Z,22.99
2023-05-21T07:43:42.567Z,24.87
2023-05-21T07:48:42.506Z,23.34
2023-05-21T07:53:42.487Z,24.42
2023-05-21T07:58:42.449Z,26.90
2023-05-21T08:03:42.574Z,28.48
2023-05-21T08:08:42.411Z,27.48
2023-05-21T08:13:42.371Z,28.36
2023-05-21T08:18:42.355Z,25.04
2023-05-21T08:23:42.287Z,24.42
2023-05-21T08:28:42.251Z,24.86
2023-05-21T08:33:42.218Z,27.83
2023-05-21T08:38:42.195Z,29.14
2023-05-21T08:43:42.306Z,27.66
2023-05-21T08:48:42.135Z,26.42
2023-05-21T08:53:42.092Z,27.52
2023-05-21T08:58:42.064Z,27.49
2023-05-21T09:03:42.090Z,27.61
2023-05-21T09:08:42.025Z,26.96
2023-05-21T09:13:42.151Z,25.96
2023-05-21T09:18:41.932Z,24.89
2023-05-21T09:23:41.894Z,26.64
2023-05-21T09:28:41.838Z,25.79
2023-05-21T09:33:41.825Z,25.14
2023-05-21T09:38:41.837Z,28.45
2023-05-21T09:43:41.809Z,27.78
2023-05-21T09:48:41.779Z,27.34
2023-05-21T09:53:41.745Z,31.00
2023-05-21T09:58:41.738Z,31.35
2023-05-21T10:03:41.708Z,28.35
2023-05-21T10:08:41.693Z,28.80
2023-05-21T10:13:41.658Z,28.15
2023-05-21T10:18:41.624Z,30.46
2023-05-21T10:23:41.618Z,29.36
2023-05-21T10:28:41.929Z,29.26
2023-05-21T10:33:41.558Z,27.99
2023-05-21T10:38:41.559Z,27.84
2023-05-21T10:43:41.503Z,26.13
2023-05-21T10:48:41.486Z,26.60
2023-05-21T10:53:41.474Z,26.79
2023-05-21T10:58:41.449Z,26.39
2023-05-21T11:03:41.573Z,26.06
2023-05-21T11:08:41.396Z,26.65
2023-05-21T11:13:41.374Z,27.74
2023-05-21T11:18:41.351Z,27.83
2023-05-21T11:23:41.338Z,28.17
2023-05-21T11:28:41.292Z,27.61
2023-05-21T11:33:41.328Z,28.73
2023-05-21T11:38:41.242Z,30.86
2023-05-21T11:43:41.224Z,32.46
2023-05-21T11:48:41.194Z,31.53
2023-05-21T11:53:42.704Z,29.64
2023-05-21T11:58:41.141Z,29.42
2023-05-21T12:03:41.156Z,30.25
2023-05-21T12:08:41.100Z,30.70
2023-05-21T12:13:41.078Z,29.15
2023-05-21T12:18:41.063Z,32.58
2023-05-21T12:23:41.049Z,29.39
2023-05-21T12:28:41.041Z,29.37
2023-05-21T12:33:40.978Z,28.94
2023-05-21T12:38:40.968Z,27.80
2023-05-21T12:43:40.974Z,29.55
2023-05-21T12:48:40.922Z,29.00
2023-05-21T12:53:40.857Z,29.02
2023-05-21T12:58:40.875Z,28.39
2023-05-21T13:03:40.830Z,28.55
2023-05-21T13:08:40.791Z,28.67
2023-05-21T13:13:40.739Z,27.88
2023-05-21T13:18:40.743Z,28.72
2023-05-21T13:23:40.719Z,28.28
2023-05-21T13:28:42.514Z,28.15
2023-05-21T13:33:40.725Z,27.46
2023-05-21T13:38:40.610Z,27.62
2023-05-21T13:43:40.610Z,27.65
2023-05-21T13:48:40.558Z,27.87
2023-05-21T13:53:40.552Z,28.06
2023-05-21T13:58:40.508Z,28.02
2023-05-21T14:03:40.547Z,27.93
2023-05-21T14:08:40.433Z,27.77
2023-05-21T14:13:40.419Z,27.88
2023-05-21T14:18:40.364Z,27.83
2023-05-21T14:23:40.362Z,27.83
2023-05-21T14:28:40.360Z,27.95
2023-05-21T14:33:40.316Z,28.13
2023-05-21T14:38:40.265Z,28.52
2023-05-21T14:43:40.268Z,28.42
2023-05-21T14:48:40.230Z,27.61
2023-05-21T14:53:40.209Z,27.34
2023-05-21T14:58:40.172Z,27.20
2023-05-21T15:03:40.177Z,27.31
2023-05-21T15:08:40.056Z,26.90
2023-05-21T15:13:40.054Z,26.91
2023-05-21T15:18:40.008Z,27.20
2023-05-21T15:23:40.004Z,27.27
2023-05-21T15:28:39.997Z,27.08
2023-05-21T15:33:39.988Z,27.20
2023-05-21T15:38:39.912Z,27.08
2023-05-21T15:43:39.879Z,27.01
2023-05-21T15:48:39.882Z,27.06
2023-05-21T15:53:39.800Z,27.09
2023-05-21T15:58:39.738Z,27.02
2023-05-21T16:03:39.745Z,27.02
2023-05-21T16:08:39.675Z,27.06
2023-05-21T16:13:39.694Z,27.03
2023-05-21T16:18:39.634Z,27.09
2023-05-21T16:23:39.640Z,27.15
2023-05-21T16:28:39.591Z,27.15
2023-05-21T16:33:39.573Z,27.01
2023-05-21T16:38:39.584Z,27.16
2023-05-21T16:43:39.543Z,27.11
2023-05-21T16:48:39.497Z,26.86
2023-05-21T16:53:39.492Z,26.66
2023-05-21T16:58:39.637Z,26.41
2023-05-21T17:03:40.990Z,26.32
2023-05-21T17:08:39.360Z,26.12
2023-05-21T17:13:39.292Z,26.00
2023-05-21T17:18:39.282Z,25.82
2023-05-21T17:23:39.269Z,25.78
2023-05-21T17:28:39.250Z,25.67
2023-05-21T17:33:39.237Z,25.61
2023-05-21T17:38:39.186Z,25.48
2023-05-21T17:43:39.601Z,25.07
2023-05-21T17:48:39.135Z,24.80
2023-05-21T17:53:39.124Z,24.60
2023-05-21T17:58:39.152Z,24.37
2023-05-21T18:03:39.196Z,23.97
2023-05-21T18:08:39.089Z,23.59
2023-05-21T18:13:39.033Z,23.49
2023-05-21T18:18:39.008Z,23.45
2023-05-21T18:23:39.063Z,23.52
2023-05-21T18:28:39.232Z,23.60
2023-05-21T18:33:38.919Z,23.56
2023-05-21T18:38:38.835Z,23.39
2023-05-21T18:43:38.874Z,23.35
2023-05-21T18:48:38.806Z,23.87
2023-05-21T18:53:38.750Z,24.05
2023-05-21T18:58:40.649Z,24.06
2023-05-21T19:03:38.648Z,24.06
2023-05-21T19:08:38.615Z,23.96
2023-05-21T19:13:38.593Z,23.78
2023-05-21T19:18:39.835Z,23.78
2023-05-21T19:23:48.756Z,23.67
2023-05-21T19:28:38.469Z,23.52
2023-05-21T19:33:38.537Z,23.41
2023-05-21T19:38:38.412Z,23.35
2023-05-21T19:43:38.404Z,23.39
2023-05-21T19:48:38.367Z,23.31
2023-05-21T19:53:38.353Z,23.25
2023-05-21T19:58:38.313Z,23.25
2023-05-21T20:03:38.321Z,23.15
2023-05-21T20:08:38.257Z,23.04
2023-05-21T20:13:38.720Z,22.89
2023-05-21T20:18:38.203Z,22.76
2023-05-21T20:23:38.183Z,22.64
2023-05-21T20:28:38.178Z,22.61
2023-05-21T20:33:40.035Z,22.57
2023-05-21T20:38:38.283Z,22.56
2023-05-21T20:43:38.099Z,22.35
2023-05-21T20:48:38.050Z,22.23
2023-05-21T20:53:38.045Z,22.20
2023-05-21T20:58:38.012Z,22.15
2023-05-21T21:03:38.094Z,22.15
2023-05-21T21:08:37.885Z,22.06
2023-05-21T21:13:37.890Z,21.90
2023-05-21T21:18:37.887Z,21.70
2023-05-21T21:23:37.797Z,21.38
2023-05-21T21:28:37.764Z,21.16
2023-05-21T21:33:37.808Z,20.96
2023-05-21T21:38:37.692Z,20.79
2023-05-21T21:43:37.646Z,20.69
2023-05-21T21:48:37.639Z,20.54
2023-05-21T21:53:37.584Z,20.48
2023-05-21T21:58:37.552Z,20.40
2023-05-21T22:03:37.507Z,20.19
2023-05-21T22:08:37.472Z,20.04
2023-05-21T22:13:37.433Z,20.00
2023-05-21T22:18:41.163Z,20.19
2023-05-21T22:23:37.370Z,20.13
2023-05-21T22:28:37.345Z,19.95
2023-05-21T22:33:37.314Z,19.76
2023-05-21T22:38:37.237Z,19.62
2023-05-21T22:43:37.223Z,19.61
2023-05-21T22:48:37.293Z,19.46
2023-05-21T22:53:37.125Z,19.60
2023-05-21T22:58:37.083Z,19.53
2023-05-21T23:03:37.035Z,19.39
2023-05-21T23:08:36.974Z,19.21
2023-05-21T23:13:36.969Z,18.97
2023-05-21T23:18:36.953Z,18.84
2023-05-21T23:23:36.942Z,18.78
2023-05-21T23:28:36.924Z,18.79
2023-05-21T23:33:36.904Z,18.74
2023-05-21T23:38:36.875Z,18.86
2023-05-21T23:43:36.875Z,18.89
2023-05-21T23:48:36.804Z,18.91
2023-05-21T23:53:36.787Z,18.82
2023-05-21T23:58:36.756Z,18.74
